createdAt,value
2018-11-14T00:03:11.701Z,102803.44
2018-11-14T00:07:17.005Z,102808.22
2018-11-14T00:11:37.940Z,102809.09
2018-11-14T00:15:41.930Z,102816.91
2018-11-14T00:19:46.192Z,102815.19
2018-11-14T00:23:50.436Z,102818.64
2018-11-14T00:27:54.939Z,102823.88
2018-11-14T00:31:59.016Z,102816.45
2018-11-14T00:36:03.318Z,102817.75
2018-11-14T00:40:09.665Z,102814.27
2018-11-14T00:44:14.005Z,102816.87
2018-11-14T00:48:18.144Z,102816.02
2018-11-14T00:52:22.648Z,102813.84
2018-11-14T00:56:26.636Z,102819.04
2018-11-14T01:00:30.720Z,102824.72
2018-11-14T01:04:35.147Z,102818.19
2018-11-14T01:08:39.511Z,102815.58
2018-11-14T01:12:44.924Z,102822.11
2018-11-14T01:16:49.689Z,102828.20
2018-11-14T01:20:53.870Z,102827.72
2018-11-14T01:24:58.520Z,102840.79
2018-11-14T01:29:03.054Z,102845.55
2018-11-14T01:33:07.451Z,102842.91
2018-11-14T01:37:11.995Z,102839.38
2018-11-14T01:41:16.169Z,102840.69
2018-11-14T01:45:20.721Z,102842.84
2018-11-14T01:49:25.122Z,102834.58
2018-11-14T01:53:29.272Z,102827.17
2018-11-14T01:57:33.483Z,102827.61
2018-11-14T02:01:37.773Z,102828.44
2018-11-14T02:05:42.188Z,102827.58
2018-11-14T02:09:46.773Z,102829.77
2018-11-14T02:13:50.982Z,102822.36
2018-11-14T02:17:55.252Z,102820.62
2018-11-14T02:21:59.638Z,102815.84
2018-11-14T02:26:03.918Z,102822.78
2018-11-14T02:30:10.496Z,102814.11
2018-11-14T02:34:14.612Z,102808.44
2018-11-14T02:38:19.318Z,102805.37
2018-11-14T02:42:23.901Z,102801.88
2018-11-14T02:46:28.630Z,102792.72
2018-11-14T02:50:32.850Z,102800.16
2018-11-14T02:54:37.267Z,102783.62
2018-11-14T02:58:41.571Z,102780.98
2018-11-14T03:02:45.964Z,102786.17
2018-11-14T03:06:50.127Z,102782.21
2018-11-14T03:10:54.442Z,102784.38
2018-11-14T03:14:58.844Z,102779.11
2018-11-14T03:19:02.976Z,102772.58
2018-11-14T03:23:07.404Z,102777.80
2018-11-14T03:27:12.103Z,102768.63
2018-11-14T03:31:16.482Z,102766.87
2018-11-14T03:35:20.772Z,102759.14
2018-11-14T03:39:25.140Z,102748.70
2018-11-14T03:43:29.329Z,102744.33
2018-11-14T03:47:33.708Z,102746.93
2018-11-14T03:51:38.090Z,102753.41
2018-11-14T03:55:42.390Z,102747.75
2018-11-14T03:59:46.703Z,102745.57
2018-11-14T04:03:51.741Z,102741.18
2018-11-14T04:07:56.073Z,102741.17
2018-11-14T04:12:00.302Z,102745.92
2018-11-14T04:16:05.791Z,102748.07
2018-11-14T04:20:12.285Z,102736.36
2018-11-14T04:24:16.859Z,102732.42
2018-11-14T04:28:20.965Z,102732.41
2018-11-14T04:32:25.805Z,102721.53
2018-11-14T04:36:29.993Z,102726.27
2018-11-14T04:40:34.295Z,102726.70
2018-11-14T04:44:38.406Z,102728.45
2018-11-14T04:48:42.933Z,102729.31
2018-11-14T04:52:48.040Z,102730.59
2018-11-14T04:56:52.231Z,102740.12
2018-11-14T05:00:56.377Z,102739.66
2018-11-14T05:05:00.556Z,102740.52
2018-11-14T05:09:09.040Z,102745.28
2018-11-14T05:13:13.304Z,102732.28
2018-11-14T05:17:17.641Z,102736.62
2018-11-14T05:21:21.846Z,102737.91
2018-11-14T05:25:26.780Z,102745.72
2018-11-14T05:29:30.982Z,102739.61
2018-11-14T05:33:35.241Z,102745.25
2018-11-14T05:37:39.882Z,102748.27
2018-11-14T05:41:44.594Z,102749.95
2018-11-14T05:45:49.038Z,102754.21
2018-11-14T05:49:53.221Z,102755.87
2018-11-14T05:53:57.397Z,102756.34
2018-11-14T05:58:01.691Z,102761.52
2018-11-14T06:02:05.931Z,102749.72
2018-11-14T06:06:10.645Z,102751.44
2018-11-14T06:10:14.894Z,102754.05
2018-11-14T06:14:18.998Z,102767.05
2018-11-14T06:18:23.142Z,102764.84
2018-11-14T06:22:27.442Z,102768.72
2018-11-14T06:26:31.618Z,102771.71
2018-11-14T06:30:37.020Z,102776.48
2018-11-14T06:34:41.285Z,102779.45
2018-11-14T06:38:46.088Z,102770.34
2018-11-14T06:42:50.433Z,102773.80
2018-11-14T06:46:55.295Z,102772.87
2018-11-14T06:50:59.793Z,102774.61
2018-11-14T06:55:06.418Z,102780.71
2018-11-14T06:59:10.762Z,102784.20
2018-11-14T07:03:15.077Z,102785.98
2018-11-14T07:07:19.828Z,102793.81
2018-11-14T07:11:24.202Z,102793.83
2018-11-14T07:15:29.052Z,102796.50
2018-11-14T07:19:33.400Z,102797.39
2018-11-14T07:23:37.876Z,102800.88
2018-11-14T07:27:42.286Z,102802.08
2018-11-14T07:31:46.378Z,102797.62
2018-11-14T07:35:50.564Z,102792.03
2018-11-14T07:39:54.929Z,102797.33
2018-11-14T07:43:59.328Z,102811.71
2018-11-14T07:48:03.693Z,102810.91
2018-11-14T07:52:07.855Z,102812.20
2018-11-14T07:56:12.636Z,102813.63
2018-11-14T08:00:17.969Z,102822.80
2018-11-14T08:04:22.203Z,102830.72
2018-11-14T08:08:26.413Z,102830.02
2018-11-14T08:12:30.483Z,102828.80
2018-11-14T08:16:34.520Z,102831.97
2018-11-14T08:20:38.650Z,102824.21
2018-11-14T08:24:42.681Z,102827.00
2018-11-14T08:28:46.988Z,102830.17
2018-11-14T08:32:51.345Z,102829.39
2018-11-14T08:36:55.634Z,102819.41
2018-11-14T08:40:59.958Z,102814.67
2018-11-14T08:45:06.691Z,102812.98
2018-11-14T08:49:11.377Z,102812.97
2018-11-14T08:53:15.509Z,102803.86
2018-11-14T08:57:20.219Z,102802.99
2018-11-14T09:01:25.110Z,102802.98
2018-11-14T09:05:30.373Z,102800.34
2018-11-14T09:09:35.007Z,102798.36
2018-11-14T09:13:39.386Z,102807.25
2018-11-14T09:17:43.806Z,102805.41
2018-11-14T09:21:48.374Z,102803.81
2018-11-14T09:25:53.708Z,102804.16
2018-11-14T09:29:58.213Z,102795.00
2018-11-14T09:34:02.995Z,102800.32
2018-11-14T09:38:07.325Z,102806.37
2018-11-14T09:42:11.778Z,102814.95
2018-11-14T09:46:15.918Z,102814.70
2018-11-14T09:50:24.464Z,102817.84
2018-11-14T09:54:29.228Z,102812.98
2018-11-14T09:58:33.829Z,102799.93
2018-11-14T10:02:38.251Z,102798.03
2018-11-14T10:06:43.254Z,102804.55
2018-11-14T10:10:47.480Z,102795.50
2018-11-14T10:14:51.722Z,102799.78
2018-11-14T10:18:56.018Z,102787.05
2018-11-14T10:23:00.309Z,102777.66
2018-11-14T10:27:05.304Z,102772.83
2018-11-14T10:31:09.662Z,102773.31
2018-11-14T10:35:14.280Z,102765.25
2018-11-14T10:39:18.566Z,102757.05
2018-11-14T10:43:22.828Z,102756.66
2018-11-14T10:47:27.248Z,102750.91
2018-11-14T10:51:31.564Z,102750.14
2018-11-14T10:55:35.729Z,102748.03
2018-11-14T10:59:40.416Z,102748.77
2018-11-14T11:04:49.544Z,102743.50
2018-11-14T11:08:59.047Z,102747.49
2018-11-14T11:14:12.534Z,102752.13
2018-11-14T11:18:17.743Z,102746.06
2018-11-14T11:22:22.023Z,102753.50
2018-11-14T11:26:26.588Z,102746.70
2018-11-14T11:30:31.262Z,102746.49
2018-11-14T11:34:35.789Z,102746.36
2018-11-14T11:38:40.045Z,102738.56
2018-11-14T11:42:44.621Z,102741.52
2018-11-14T11:46:48.883Z,102728.35
2018-11-14T11:50:53.592Z,102719.20
2018-11-14T11:54:58.703Z,102726.96
2018-11-14T11:59:02.792Z,102713.53
2018-11-14T12:03:07.768Z,102717.57
2018-11-14T12:07:12.044Z,102718.70
2018-11-14T12:11:16.355Z,102717.72
2018-11-14T12:15:20.947Z,102704.63
2018-11-14T12:19:25.284Z,102707.06
2018-11-14T12:23:30.369Z,102708.63
2018-11-14T12:27:35.307Z,102701.11
2018-11-14T12:31:39.748Z,102697.55
2018-11-14T12:35:44.919Z,102691.16
2018-11-14T12:39:49.979Z,102693.44
2018-11-14T12:43:54.672Z,102689.37
2018-11-14T12:47:58.943Z,102688.38
2018-11-14T12:52:03.992Z,102684.28
2018-11-14T12:56:08.569Z,102685.96
2018-11-14T13:00:14.537Z,102677.11
2018-11-14T13:04:19.178Z,102679.55
2018-11-14T13:08:23.443Z,102673.61
2018-11-14T13:12:27.981Z,102671.11
2018-11-14T13:16:32.273Z,102677.72
2018-11-14T13:20:36.663Z,102666.92
2018-11-14T13:24:40.879Z,102669.38
2018-11-14T13:28:45.315Z,102655.45
2018-11-14T13:32:50.481Z,102654.77
2018-11-14T13:36:55.070Z,102659.89
2018-11-14T13:40:59.416Z,102656.44
2018-11-14T13:45:03.523Z,102646.71
2018-11-14T13:49:08.046Z,102645.19
2018-11-14T13:53:11.906Z,102640.00
2018-11-14T13:57:15.899Z,102645.31
2018-11-14T14:01:19.968Z,102659.96
2018-11-14T14:05:25.032Z,102647.72
2018-11-14T14:09:29.090Z,102647.44
2018-11-14T14:13:33.520Z,102644.48
2018-11-14T14:17:37.876Z,102639.77
2018-11-14T14:21:42.257Z,102642.02
2018-11-14T14:25:46.209Z,102636.03
2018-11-14T14:29:50.243Z,102629.87
2018-11-14T14:33:54.152Z,102629.84
2018-11-14T14:37:58.136Z,102628.99
2018-11-14T14:42:02.320Z,102628.86
2018-11-14T14:46:06.841Z,102628.45
2018-11-14T14:50:13.773Z,102631.88
2018-11-14T14:54:17.869Z,102637.13
2018-11-14T14:58:21.881Z,102638.38
2018-11-14T15:02:25.898Z,102635.06
2018-11-14T15:06:29.949Z,102634.13
2018-11-14T15:10:34.078Z,102630.96
2018-11-14T15:14:38.137Z,102628.28
2018-11-14T15:18:42.240Z,102624.40
2018-11-14T15:22:46.411Z,102621.12
2018-11-14T15:26:50.428Z,102620.45
2018-11-14T15:30:54.679Z,102615.33
2018-11-14T15:34:58.823Z,102607.66
2018-11-14T15:39:03.006Z,102613.53
2018-11-14T15:43:07.233Z,102611.25
2018-11-14T15:47:11.275Z,102610.10
2018-11-14T15:51:15.634Z,102602.96
2018-11-14T15:55:20.583Z,102602.78
2018-11-14T15:59:24.768Z,102606.08
2018-11-14T16:03:28.823Z,102611.91
2018-11-14T16:07:32.969Z,102610.24
2018-11-14T16:11:37.708Z,102613.92
2018-11-14T16:15:41.881Z,102612.70
2018-11-14T16:19:45.881Z,102612.00
2018-11-14T16:23:50.197Z,102612.59
2018-11-14T16:27:55.677Z,102614.48
2018-11-14T16:31:59.860Z,102617.30
2018-11-14T16:36:04.188Z,102612.27
2018-11-14T16:40:10.314Z,102611.56
2018-11-14T16:44:14.716Z,102609.15
2018-11-14T16:48:19.986Z,102609.30
2018-11-14T16:52:24.311Z,102613.52
2018-11-14T16:56:28.414Z,102613.30
2018-11-14T17:00:32.643Z,102611.73
2018-11-14T17:04:36.888Z,102616.34
2018-11-14T17:08:40.851Z,102616.04
2018-11-14T17:12:46.173Z,102608.28
2018-11-14T17:16:50.854Z,102608.81
2018-11-14T17:20:54.845Z,102604.58
2018-11-14T17:24:58.757Z,102610.76
2018-11-14T17:29:04.234Z,102608.72
2018-11-14T17:33:08.207Z,102613.16
2018-11-14T17:37:12.516Z,102613.68
2018-11-14T17:41:16.685Z,102612.48
2018-11-14T17:45:24.403Z,102612.09
2018-11-14T17:49:28.468Z,102603.97
2018-11-14T17:53:32.490Z,102608.84
2018-11-14T17:57:37.070Z,102603.22
2018-11-14T18:01:43.378Z,102604.94
2018-11-14T18:05:48.465Z,102604.58
2018-11-14T18:09:52.857Z,102601.12
2018-11-14T18:13:57.135Z,102595.49
2018-11-14T18:18:01.611Z,102588.98
2018-11-14T18:22:06.113Z,102593.38
2018-11-14T18:26:10.144Z,102600.39
2018-11-14T18:30:17.381Z,102601.77
2018-11-14T18:34:21.434Z,102597.88
2018-11-14T18:38:26.409Z,102597.89
2018-11-14T18:42:30.523Z,102598.45
2018-11-14T18:46:34.486Z,102604.14
2018-11-14T18:50:38.812Z,102605.92
2018-11-14T18:54:43.229Z,102601.63
2018-11-14T18:58:47.330Z,102599.97
2018-11-14T19:02:51.742Z,102595.25
2018-11-14T19:06:55.802Z,102592.23
2018-11-14T19:11:00.232Z,102587.48
2018-11-14T19:15:06.503Z,102583.15
2018-11-14T19:19:10.702Z,102579.27
2018-11-14T19:23:14.552Z,102588.03
2018-11-14T19:27:18.650Z,102587.30
2018-11-14T19:31:22.904Z,102584.34
2018-11-14T19:35:26.983Z,102584.87
2018-11-14T19:39:31.331Z,102584.55
2018-11-14T19:43:35.493Z,102588.15
2018-11-14T19:47:40.007Z,102579.44
2018-11-14T19:51:44.013Z,102580.33
2018-11-14T19:55:48.077Z,102582.47
2018-11-14T19:59:52.063Z,102572.04
2018-11-14T20:03:56.110Z,102574.67
2018-11-14T20:08:00.164Z,102576.00
2018-11-14T20:12:04.980Z,102573.41
2018-11-14T20:16:09.016Z,102569.51
2018-11-14T20:20:15.523Z,102569.51
2018-11-14T20:24:19.725Z,102573.03
2018-11-14T20:28:23.742Z,102573.49
2018-11-14T20:32:27.881Z,102576.96
2018-11-14T20:36:31.920Z,102572.62
2018-11-14T20:40:38.259Z,102573.06
2018-11-14T20:44:42.344Z,102568.26
2018-11-14T20:48:47.186Z,102567.87
2018-11-14T20:52:52.818Z,102558.73
2018-11-14T20:56:57.019Z,102563.52
2018-11-14T21:01:01.045Z,102561.80
2018-11-14T21:05:06.380Z,102558.34
2018-11-14T21:09:11.082Z,102563.58
2018-11-14T21:13:15.066Z,102564.45
2018-11-14T21:17:19.060Z,102562.73
2018-11-14T21:21:23.144Z,102564.91
2018-11-14T21:25:27.483Z,102567.08
2018-11-14T21:29:31.488Z,102568.39
2018-11-14T21:33:35.459Z,102566.20
2018-11-14T21:37:39.553Z,102572.32
2018-11-14T21:41:44.312Z,102572.32
2018-11-14T21:45:48.375Z,102570.59
2018-11-14T21:49:52.469Z,102575.80
2018-11-14T21:53:56.461Z,102578.42
2018-11-14T21:58:00.457Z,102577.97
2018-11-14T22:02:05.325Z,102583.19
2018-11-14T22:06:09.464Z,102574.06
2018-11-14T22:10:17.146Z,102571.44
2018-11-14T22:14:21.224Z,102576.66
2018-11-14T22:18:25.167Z,102574.05
2018-11-14T22:22:29.185Z,102569.27
2018-11-14T22:26:33.612Z,102564.49
2018-11-14T22:30:37.831Z,102569.72
2018-11-14T22:34:42.038Z,102570.13
2018-11-14T22:38:46.657Z,102564.94
2018-11-14T22:42:51.079Z,102560.16
2018-11-14T22:46:55.663Z,102561.86
2018-11-14T22:50:59.694Z,102555.78
2018-11-14T22:55:05.515Z,102564.50
2018-11-14T22:59:09.545Z,102554.06
2018-11-14T23:03:15.720Z,102560.12
2018-11-14T23:07:19.853Z,102561.00
2018-11-14T23:11:24.378Z,102563.16
2018-11-14T23:15:28.819Z,102555.74
2018-11-14T23:19:33.007Z,102567.92
2018-11-14T23:23:37.236Z,102558.77
2018-11-14T23:27:43.075Z,102560.08
2018-11-14T23:31:47.293Z,102563.55
2018-11-14T23:35:51.422Z,102570.94
2018-11-14T23:39:55.529Z,102568.33
2018-11-14T23:44:04.124Z,102564.41
2018-11-14T23:48:08.384Z,102564.39
2018-11-14T23:52:13.077Z,102568.73
2018-11-14T23:56:17.173Z,102565.67
